Time;durP1;ratioP1;P1;durP2;ratioP2;P2;SDS_P1;SDS_P2;PMS_P1;PMS_P2;Temp;Humidity;BMP_temperature;BMP_pressure;BME280_temperature;BME280_humidity;BME280_pressure;Samples;Min_cycle;Max_cycle;Signal;HPM_P1;HPM_P2
2022/08/05 00:00:23;;;;;;;3.78;1.60;;;26.20;99.90;;;;;;5000348;28;20382;-71
2022/08/05 00:02:49;;;;;;;2.63;1.50;;;26.20;99.90;;;;;;5001632;28;20509;-71
2022/08/05 00:05:15;;;;;;;4.07;1.50;;;26.20;99.90;;;;;;5004915;28;20042;-71
2022/08/05 00:07:41;;;;;;;3.42;1.65;;;26.20;99.90;;;;;;4996794;28;20042;-71
2022/08/05 00:10:07;;;;;;;3.15;1.52;;;26.20;99.90;;;;;;5006704;28;20777;-71
2022/08/05 00:12:34;;;;;;;4.18;1.50;;;26.20;99.90;;;;;;5010092;28;20138;-71
2022/08/05 00:15:00;;;;;;;3.53;1.50;;;26.20;99.90;;;;;;4999816;28;20476;-71
2022/08/05 00:17:26;;;;;;;2.90;1.45;;;26.20;99.90;;;;;;4998038;28;20513;-71
2022/08/05 00:19:54;;;;;;;5.00;1.83;;;26.20;99.90;;;;;;5010595;28;20117;-70
2022/08/05 00:22:22;;;;;;;3.00;1.63;;;26.20;99.90;;;;;;5000417;28;20030;-70
2022/08/05 00:24:51;;;;;;;2.65;1.60;;;26.20;99.90;;;;;;4999507;28;20046;-71
2022/08/05 00:27:17;;;;;;;2.85;1.52;;;26.20;99.90;;;;;;4990696;28;20074;-72
2022/08/05 00:29:43;;;;;;;4.22;1.80;;;26.30;99.90;;;;;;5002287;28;20056;-71
2022/08/05 00:32:11;;;;;;;6.07;1.52;;;26.30;99.90;;;;;;5000386;28;20148;-70
2022/08/05 00:34:41;;;;;;;2.58;1.60;;;26.20;99.90;;;;;;4983057;28;20561;-71
2022/08/05 00:37:08;;;;;;;3.03;1.65;;;26.20;99.90;;;;;;4982108;28;20038;-70
2022/08/05 00:39:34;;;;;;;5.70;1.58;;;26.10;99.90;;;;;;4988225;28;20053;-71
2022/08/05 00:42:00;;;;;;;2.33;1.60;;;26.20;99.90;;;;;;4981961;28;20537;-71
2022/08/05 00:44:25;;;;;;;4.18;1.65;;;26.10;99.90;;;;;;4978057;28;20382;-71
2022/08/05 00:46:51;;;;;;;3.60;1.60;;;26.10;99.90;;;;;;4982687;28;20062;-72
2022/08/05 00:49:18;;;;;;;2.97;1.38;;;26.10;99.90;;;;;;4972526;28;20035;-71
2022/08/05 00:51:45;;;;;;;1.65;1.20;;;26.10;99.90;;;;;;4973523;28;21303;-71
2022/08/05 00:54:12;;;;;;;1.83;1.27;;;26.10;99.90;;;;;;4994972;28;20513;-70
2022/08/05 00:56:38;;;;;;;1.98;1.25;;;26.20;99.90;;;;;;4990680;28;20077;-71
2022/08/05 00:59:04;;;;;;;2.60;1.20;;;26.10;99.90;;;;;;4983562;28;20153;-71
2022/08/05 01:01:30;;;;;;;2.95;1.20;;;26.10;99.90;;;;;;4989194;28;20042;-71
2022/08/05 01:03:56;;;;;;;3.72;1.40;;;26.20;99.90;;;;;;5001673;28;20030;-71
2022/08/05 01:06:22;;;;;;;3.05;1.08;;;26.20;99.90;;;;;;4987379;28;20868;-70
2022/08/05 01:08:48;;;;;;;3.30;1.17;;;26.20;99.90;;;;;;4977447;28;20583;-70
2022/08/05 01:11:29;;;;;;;2.08;1.02;;;26.20;99.90;;;;;;4980739;28;20149;-71
2022/08/05 01:14:12;;;;;;;4.40;1.20;;;26.20;99.90;;;;;;4986021;28;20568;-71
2022/08/05 01:16:50;;;;;;;1.63;1.30;;;26.10;99.90;;;;;;4987103;28;20137;-72
2022/08/05 01:19:22;;;;;;;1.83;1.23;;;26.20;99.90;;;;;;5020486;28;20057;-72
2022/08/05 01:22:13;;;;;;;3.60;1.20;;;26.10;99.90;;;;;;5007320;28;20031;-70
2022/08/05 01:24:46;;;;;;;2.75;1.30;;;26.20;99.90;;;;;;4993895;28;20068;-72
2022/08/05 01:27:49;;;;;;;3.95;1.70;;;26.10;99.90;;;;;;4998005;28;20341;-71
2022/08/05 01:30:16;;;;;;;5.72;1.80;;;26.10;99.90;;;;;;4999763;28;20052;-72
2022/08/05 01:32:44;;;;;;;3.60;1.90;;;26.20;99.90;;;;;;4982715;28;20046;-71
2022/08/05 01:35:16;;;;;;;4.45;2.00;;;26.20;99.90;;;;;;4992305;28;20072;-71
2022/08/05 01:37:47;;;;;;;3.00;2.30;;;26.20;99.90;;;;;;4986247;28;20034;-71
2022/08/05 01:40:16;;;;;;;4.15;2.15;;;26.20;99.90;;;;;;4978377;28;20100;-70
2022/08/05 01:42:44;;;;;;;4.05;2.20;;;26.10;99.90;;;;;;4983609;28;20557;-71
2022/08/05 01:45:13;;;;;;;2.72;1.80;;;26.10;99.90;;;;;;4979747;28;20062;-71
2022/08/05 01:47:43;;;;;;;3.75;2.03;;;26.10;99.90;;;;;;4982097;28;20524;-71
2022/08/05 01:50:14;;;;;;;3.55;2.20;;;26.10;99.90;;;;;;4982138;28;20129;-70
2022/08/05 01:52:44;;;;;;;4.72;1.83;;;26.10;99.90;;;;;;4984747;28;20042;-70
2022/08/05 01:55:15;;;;;;;2.78;2.00;;;26.10;99.90;;;;;;4981484;28;20034;-70
2022/08/05 01:57:44;;;;;;;2.45;1.80;;;26.10;99.90;;;;;;4982049;28;20401;-70
2022/08/05 02:00:11;;;;;;;4.15;1.90;;;26.10;99.90;;;;;;4984596;28;20478;-71
2022/08/05 02:02:44;;;;;;;2.75;1.98;;;26.20;99.90;;;;;;4983035;28;20485;-70
2022/08/05 02:05:12;;;;;;;2.92;2.00;;;26.20;99.90;;;;;;4984123;28;20038;-71
2022/08/05 02:07:38;;;;;;;4.55;2.17;;;26.20;99.90;;;;;;4984185;28;20091;-71
2022/08/05 02:10:05;;;;;;;3.72;2.00;;;26.10;99.90;;;;;;4981183;28;20041;-70
2022/08/05 02:12:43;;;;;;;4.28;1.95;;;26.20;99.90;;;;;;4984709;28;20035;-71
2022/08/05 02:15:20;;;;;;;5.20;2.30;;;26.10;99.90;;;;;;4987398;28;20045;-71
2022/08/05 02:18:15;;;;;;;3.22;1.95;;;26.00;99.90;;;;;;4978018;28;20114;-71
2022/08/05 02:20:53;;;;;;;4.20;2.13;;;26.00;99.90;;;;;;4991853;28;20124;-70
2022/08/05 02:23:27;;;;;;;3.40;2.40;;;26.00;99.90;;;;;;5016294;28;20075;-71
2022/08/05 02:25:56;;;;;;;3.63;2.00;;;26.00;99.90;;;;;;4981992;28;20455;-71
2022/08/05 02:28:29;;;;;;;3.53;2.10;;;26.00;99.90;;;;;;4978338;28;20581;-70
2022/08/05 02:31:08;;;;;;;4.40;2.22;;;26.00;99.90;;;;;;4981981;28;20038;-70
2022/08/05 02:33:43;;;;;;;4.25;2.10;;;26.00;99.90;;;;;;4976625;28;20491;-71
2022/08/05 02:36:12;;;;;;;3.42;2.28;;;26.00;99.90;;;;;;4994914;28;20044;-71
2022/08/05 02:38:40;;;;;;;3.30;1.92;;;26.00;99.90;;;;;;4981236;28;20045;-71
2022/08/05 02:41:09;;;;;;;3.28;2.25;;;25.90;99.90;;;;;;4994892;28;20053;-71
2022/08/05 02:43:38;;;;;;;4.03;2.47;;;25.90;99.90;;;;;;4978320;28;20049;-71
2022/08/05 02:46:04;;;;;;;3.33;2.08;;;25.90;99.90;;;;;;4978814;28;20030;-71
2022/08/05 02:48:32;;;;;;;3.50;1.90;;;25.90;99.90;;;;;;4978267;28;20778;-71
2022/08/05 02:51:02;;;;;;;3.53;1.92;;;25.90;99.90;;;;;;4997302;28;20818;-71
2022/08/05 02:53:30;;;;;;;4.03;2.00;;;25.90;99.90;;;;;;4975710;28;20029;-70
2022/08/05 02:55:57;;;;;;;3.95;1.92;;;26.00;99.90;;;;;;4983591;28;20126;-71
2022/08/05 02:58:24;;;;;;;4.72;2.10;;;25.90;99.90;;;;;;5004404;28;20042;-71
2022/08/05 03:00:54;;;;;;;3.45;2.10;;;25.90;99.90;;;;;;4991032;28;20062;-71
2022/08/05 03:03:22;;;;;;;2.92;2.15;;;25.80;99.90;;;;;;4985824;28;20335;-70
2022/08/05 03:05:49;;;;;;;4.70;1.83;;;25.80;99.90;;;;;;4979462;28;20410;-71
2022/08/05 03:08:16;;;;;;;4.75;2.22;;;25.80;99.90;;;;;;4967978;28;20584;-70
2022/08/05 03:10:45;;;;;;;3.10;2.00;;;25.80;99.90;;;;;;4984575;28;20397;-71
2022/08/05 03:13:16;;;;;;;5.18;2.00;;;25.80;99.90;;;;;;4997334;28;20479;-71
2022/08/05 03:15:46;;;;;;;3.10;2.10;;;25.80;99.90;;;;;;4986100;28;20042;-71
2022/08/05 03:18:13;;;;;;;5.22;2.05;;;25.80;99.90;;;;;;4978983;28;20782;-71
2022/08/05 03:20:39;;;;;;;4.35;2.40;;;25.70;99.90;;;;;;4987091;28;20467;-70
2022/08/05 03:23:09;;;;;;;3.47;2.05;;;25.70;99.90;;;;;;4986924;28;20038;-70
2022/08/05 03:25:37;;;;;;;5.78;2.28;;;25.70;99.90;;;;;;5000776;28;20096;-71
2022/08/05 03:28:06;;;;;;;4.70;2.13;;;25.70;99.90;;;;;;4999269;28;20066;-71
2022/08/05 03:30:33;;;;;;;3.75;2.10;;;25.70;99.90;;;;;;4990502;28;20057;-71
2022/08/05 03:33:00;;;;;;;3.00;2.13;;;25.70;99.90;;;;;;4988048;28;20045;-71
2022/08/05 03:35:27;;;;;;;3.53;2.10;;;25.70;99.90;;;;;;4982223;28;20034;-70
2022/08/05 03:37:56;;;;;;;4.70;2.22;;;25.70;99.90;;;;;;4977068;28;20381;-71
2022/08/05 03:40:26;;;;;;;4.30;2.28;;;25.70;99.90;;;;;;4979687;28;20432;-71
2022/08/05 03:42:52;;;;;;;6.40;2.13;;;25.70;99.90;;;;;;4980153;28;20521;-71
2022/08/05 03:45:18;;;;;;;3.78;2.30;;;25.60;99.90;;;;;;4977111;28;20053;-71
2022/08/05 03:47:44;;;;;;;4.35;2.20;;;25.60;99.90;;;;;;4980651;28;20041;-70
2022/08/05 03:50:11;;;;;;;3.35;2.28;;;25.70;99.90;;;;;;4983748;28;20034;-71
2022/08/05 03:53:00;;;;;;;3.78;2.38;;;25.60;99.90;;;;;;4976256;28;20700;-72
2022/08/05 03:55:34;;;;;;;7.80;2.45;;;25.70;99.90;;;;;;4989641;28;20508;-71
2022/08/05 03:58:03;;;;;;;5.10;2.25;;;25.70;99.90;;;;;;5001033;28;20058;-71
2022/08/05 04:00:31;;;;;;;3.75;2.50;;;25.60;99.90;;;;;;4981648;28;20441;-70
2022/08/05 04:03:02;;;;;;;6.75;2.20;;;25.60;99.90;;;;;;4978148;28;20046;-72
2022/08/05 04:05:32;;;;;;;4.97;2.08;;;25.60;99.90;;;;;;4994209;28;20046;-71
2022/08/05 04:07:59;;;;;;;4.68;2.00;;;25.60;99.90;;;;;;4986898;28;20956;-71
2022/08/05 04:10:27;;;;;;;4.57;2.22;;;25.60;99.90;;;;;;4978625;28;20096;-70
2022/08/05 04:12:52;;;;;;;2.75;1.88;;;25.60;99.90;;;;;;4982603;28;20050;-70
2022/08/05 04:15:18;;;;;;;5.88;2.28;;;25.60;99.90;;;;;;4985303;28;20040;-71
2022/08/05 04:17:44;;;;;;;3.35;2.00;;;25.50;99.90;;;;;;4985421;28;20042;-71
2022/08/05 04:20:22;;;;;;;4.25;2.00;;;25.40;99.90;;;;;;4984566;28;20070;-71
2022/08/05 04:22:48;;;;;;;3.55;2.03;;;25.40;99.90;;;;;;4983879;28;20658;-70
2022/08/05 04:25:14;;;;;;;5.13;2.25;;;25.50;99.90;;;;;;4984345;28;20031;-70
2022/08/05 04:27:40;;;;;;;3.85;2.17;;;25.40;99.90;;;;;;4976426;28;20040;-70
2022/08/05 04:30:08;;;;;;;7.18;2.25;;;25.40;99.90;;;;;;4992957;28;20110;-71
2022/08/05 04:32:34;;;;;;;6.30;1.98;;;25.40;99.90;;;;;;4986322;28;20441;-71
2022/08/05 04:35:00;;;;;;;4.55;2.05;;;25.50;99.90;;;;;;4985842;28;20497;-70
2022/08/05 04:37:26;;;;;;;4.57;2.72;;;25.50;99.90;;;;;;4982199;28;20041;-69
2022/08/05 04:39:52;;;;;;;3.92;2.10;;;25.50;99.90;;;;;;4981412;28;20181;-70
2022/08/05 04:42:18;;;;;;;4.45;2.42;;;25.50;99.90;;;;;;4988071;28;20052;-71
2022/08/05 04:44:43;;;;;;;4.35;2.00;;;25.50;99.90;;;;;;5002061;28;20167;-70
2022/08/05 04:47:09;;;;;;;6.38;2.13;;;25.50;99.90;;;;;;5006682;28;20131;-70
2022/08/05 04:49:35;;;;;;;4.70;2.10;;;25.60;99.90;;;;;;5004308;28;20160;-71
2022/08/05 04:52:01;;;;;;;3.78;2.22;;;25.50;99.90;;;;;;5001932;28;20049;-71
2022/08/05 04:54:26;;;;;;;5.53;2.20;;;25.50;99.90;;;;;;5003888;28;20171;-71
2022/08/05 04:56:53;;;;;;;5.22;2.58;;;25.50;99.90;;;;;;5000122;28;20042;-71
2022/08/05 04:59:21;;;;;;;4.28;2.60;;;25.60;99.90;;;;;;4998561;28;20057;-71
2022/08/05 05:01:51;;;;;;;7.32;2.50;;;25.50;99.90;;;;;;4994894;28;20030;-71
2022/08/05 05:04:17;;;;;;;5.40;2.63;;;25.50;99.90;;;;;;5000515;28;20052;-71
2022/08/05 05:06:42;;;;;;;4.03;2.17;;;25.50;99.90;;;;;;4978365;28;20034;-71
2022/08/05 05:09:10;;;;;;;6.03;2.40;;;25.50;99.90;;;;;;4982546;28;20401;-71
2022/08/05 05:11:36;;;;;;;7.13;2.60;;;25.60;99.90;;;;;;4985517;28;20664;-71
2022/08/05 05:14:02;;;;;;;3.35;2.10;;;25.70;99.90;;;;;;4968266;28;20034;-70
2022/08/05 05:16:28;;;;;;;5.03;2.40;;;25.70;99.90;;;;;;4985531;28;20038;-70
2022/08/05 05:18:54;;;;;;;5.25;2.30;;;25.80;99.90;;;;;;4982302;28;20489;-71
2022/08/05 05:21:20;;;;;;;4.28;2.20;;;25.80;99.90;;;;;;4982425;28;20041;-74
2022/08/05 05:23:46;;;;;;;3.88;2.20;;;25.80;99.90;;;;;;4986340;28;20138;-74
2022/08/05 05:26:12;;;;;;;3.60;2.25;;;25.80;99.90;;;;;;4988677;28;20026;-72
2022/08/05 05:28:37;;;;;;;4.78;2.80;;;25.90;99.90;;;;;;4980341;28;20061;-73
2022/08/05 05:31:03;;;;;;;4.53;2.45;;;25.90;99.90;;;;;;4981573;28;20045;-74
2022/08/05 05:33:30;;;;;;;4.80;2.70;;;25.90;99.90;;;;;;4987401;28;20041;-74
2022/08/05 05:35:55;;;;;;;6.35;2.30;;;26.00;99.90;;;;;;4980181;28;20026;-75
2022/08/05 05:38:21;;;;;;;5.30;2.65;;;26.00;99.90;;;;;;4966399;28;20814;-74
2022/08/05 05:40:47;;;;;;;4.32;2.60;;;26.00;99.90;;;;;;4984925;28;20033;-73
2022/08/05 05:43:13;;;;;;;4.85;2.50;;;26.10;99.90;;;;;;4996969;28;20039;-76
2022/08/05 05:45:39;;;;;;;4.60;2.92;;;26.10;99.90;;;;;;4980692;28;20382;-73
2022/08/05 05:48:06;;;;;;;4.10;2.70;;;26.20;99.90;;;;;;4985296;28;20038;-74
2022/08/05 05:50:32;;;;;;;6.40;3.15;;;26.20;99.90;;;;;;4982683;28;20069;-74
2022/08/05 05:52:58;;;;;;;3.97;2.97;;;26.20;99.90;;;;;;4984821;28;20046;-74
2022/08/05 05:55:23;;;;;;;6.60;3.63;;;26.20;99.90;;;;;;4978100;28;20118;-73
2022/08/05 05:57:49;;;;;;;7.88;3.08;;;26.20;99.90;;;;;;4989227;28;20045;-74
2022/08/05 06:00:18;;;;;;;7.30;2.85;;;26.10;99.90;;;;;;5002649;28;20057;-72
2022/08/05 06:02:45;;;;;;;5.25;3.03;;;26.20;99.90;;;;;;4988503;28;20889;-74
2022/08/05 06:05:13;;;;;;;6.60;3.47;;;26.20;99.90;;;;;;4981712;28;20179;-73
2022/08/05 06:07:39;;;;;;;4.57;3.10;;;26.30;99.90;;;;;;4985986;28;20042;-74
2022/08/05 06:10:06;;;;;;;6.18;3.10;;;26.30;99.90;;;;;;4983779;28;20029;-74
2022/08/05 06:12:33;;;;;;;8.45;3.00;;;26.40;99.90;;;;;;4976204;28;20092;-73
2022/08/05 06:15:01;;;;;;;5.53;3.08;;;26.50;99.90;;;;;;4980930;28;20117;-74
2022/08/05 06:17:28;;;;;;;5.32;3.17;;;26.60;99.90;;;;;;4980285;28;20085;-75
2022/08/05 06:19:54;;;;;;;7.15;3.00;;;26.60;99.90;;;;;;4981077;28;20030;-74
2022/08/05 06:22:27;;;;;;;5.10;3.40;;;26.70;99.90;;;;;;4983578;28;20079;-75
2022/08/05 06:24:53;;;;;;;4.93;3.20;;;26.80;99.90;;;;;;4983373;28;20031;-74
2022/08/05 06:27:19;;;;;;;10.73;4.05;;;26.90;99.90;;;;;;4999170;28;20616;-76
2022/08/05 06:29:45;;;;;;;8.55;3.42;;;27.00;99.90;;;;;;4981097;28;20031;-74
2022/08/05 06:32:11;;;;;;;6.90;3.30;;;27.00;99.90;;;;;;4981833;28;20046;-74
2022/08/05 06:34:37;;;;;;;7.65;3.67;;;27.10;99.90;;;;;;4986518;28;20041;-74
2022/08/05 06:37:03;;;;;;;8.32;3.40;;;27.20;99.90;;;;;;4987668;28;20030;-74
2022/08/05 06:39:29;;;;;;;12.75;4.10;;;27.30;99.90;;;;;;4985983;28;20070;-75
2022/08/05 06:41:56;;;;;;;8.00;3.40;;;27.40;99.90;;;;;;5004666;28;20125;-74
2022/08/05 06:44:22;;;;;;;9.32;3.10;;;27.40;99.90;;;;;;4977468;28;20050;-74
2022/08/05 06:46:47;;;;;;;6.45;3.15;;;27.50;99.90;;;;;;4977641;28;20402;-73
2022/08/05 06:49:13;;;;;;;9.70;3.20;;;27.60;99.90;;;;;;4981299;28;20038;-74
2022/08/05 06:51:39;;;;;;;5.15;3.13;;;27.70;99.90;;;;;;4982612;28;20035;-75
2022/08/05 06:54:05;;;;;;;7.43;3.47;;;27.70;99.90;;;;;;4976907;28;20513;-74
2022/08/05 06:56:32;;;;;;;7.75;3.35;;;27.70;99.90;;;;;;5002353;28;20040;-74
2022/08/05 06:58:57;;;;;;;12.20;3.55;;;27.70;99.90;;;;;;5004341;28;20513;-75
2022/08/05 07:01:23;;;;;;;9.30;3.20;;;27.60;99.90;;;;;;5009785;28;20029;-73
2022/08/05 07:03:49;;;;;;;8.32;3.33;;;27.60;99.90;;;;;;5002839;28;20030;-74
2022/08/05 07:06:16;;;;;;;6.43;3.03;;;27.70;99.90;;;;;;4979782;28;20057;-74
2022/08/05 07:08:43;;;;;;;7.22;2.88;;;27.80;99.90;;;;;;4988952;28;20497;-74
2022/08/05 07:11:10;;;;;;;6.10;2.72;;;27.80;99.90;;;;;;4993451;28;20037;-74
2022/08/05 07:19:04;;;;;;;7.32;2.90;;;27.60;99.90;;;;;;4982270;28;20680;-75
2022/08/05 07:21:30;;;;;;;3.22;2.30;;;27.80;99.90;;;;;;4982914;28;20046;-74
2022/08/05 07:23:57;;;;;;;3.92;2.50;;;27.80;99.90;;;;;;4993132;28;20041;-74
2022/08/05 07:26:23;;;;;;;4.90;2.65;;;27.80;99.90;;;;;;4994450;28;20050;-74
2022/08/05 07:28:52;;;;;;;5.47;2.30;;;27.90;99.90;;;;;;4983019;28;20042;-74
2022/08/05 07:31:18;;;;;;;4.88;2.20;;;27.90;99.90;;;;;;4986177;28;20046;-75
2022/08/05 07:33:44;;;;;;;6.53;2.50;;;28.10;99.90;;;;;;4988489;28;20100;-74
2022/08/05 07:36:10;;;;;;;5.38;2.17;;;28.20;99.90;;;;;;4964140;28;20069;-75
2022/08/05 07:38:37;;;;;;;8.10;2.70;;;28.20;99.90;;;;;;4998430;28;20039;-73
2022/08/05 07:41:05;;;;;;;5.18;2.22;;;28.10;99.90;;;;;;4981408;28;20137;-74
2022/08/05 07:43:31;;;;;;;4.10;2.28;;;28.30;99.90;;;;;;4987953;28;20036;-74
2022/08/05 07:45:56;;;;;;;4.10;2.30;;;28.40;99.90;;;;;;4986357;28;20129;-70
2022/08/05 07:48:22;;;;;;;4.88;2.40;;;28.30;99.90;;;;;;4992946;28;20088;-70
2022/08/05 07:50:48;;;;;;;6.32;2.50;;;28.50;99.90;;;;;;4980648;28;20033;-71
2022/08/05 07:53:14;;;;;;;6.10;2.70;;;28.60;99.90;;;;;;4983304;28;20049;-72
2022/08/05 07:55:41;;;;;;;5.20;2.17;;;28.80;99.90;;;;;;5004114;28;20091;-71
2022/08/05 07:58:07;;;;;;;5.68;2.50;;;28.80;99.90;;;;;;5001682;28;20049;-71
2022/08/05 08:00:33;;;;;;;4.30;2.15;;;28.70;99.90;;;;;;4986760;28;20061;-71
2022/08/05 08:02:59;;;;;;;6.90;2.50;;;28.90;99.90;;;;;;4967778;28;20040;-72
2022/08/05 08:05:26;;;;;;;7.05;2.42;;;28.80;99.90;;;;;;4984590;28;20041;-72
2022/08/05 08:07:54;;;;;;;4.47;2.22;;;28.90;99.90;;;;;;4979496;28;20046;-70
2022/08/05 08:10:23;;;;;;;8.57;2.30;;;28.90;99.90;;;;;;4979336;28;20035;-71
2022/08/05 08:12:50;;;;;;;9.05;2.65;;;29.10;99.90;;;;;;4982294;28;20039;-72
2022/08/05 08:15:16;;;;;;;5.75;2.45;;;29.10;99.90;;;;;;4984848;28;20489;-71
2022/08/05 08:17:45;;;;;;;5.10;2.28;;;29.20;99.90;;;;;;4985352;28;20046;-72
2022/08/05 08:20:11;;;;;;;5.13;2.25;;;29.40;99.90;;;;;;4980919;28;20126;-71
2022/08/05 08:22:37;;;;;;;6.75;2.58;;;29.50;99.90;;;;;;4983786;28;20038;-71
2022/08/05 08:25:04;;;;;;;12.98;2.88;;;29.60;99.90;;;;;;4975986;28;20046;-71
2022/08/05 08:27:30;;;;;;;5.43;2.25;;;29.70;99.90;;;;;;4988624;28;20073;-73
2022/08/05 08:29:56;;;;;;;7.57;2.55;;;29.80;99.90;;;;;;4983986;28;20446;-71
2022/08/05 08:32:22;;;;;;;11.02;2.95;;;29.80;99.90;;;;;;4973669;28;20042;-71
2022/08/05 08:34:48;;;;;;;5.60;2.50;;;29.80;99.90;;;;;;4986651;28;20038;-71
2022/08/05 08:37:16;;;;;;;9.60;2.30;;;29.70;99.90;;;;;;4965111;28;20088;-71
2022/08/05 08:39:43;;;;;;;5.13;2.55;;;29.80;99.90;;;;;;4995468;28;20772;-72
2022/08/05 08:42:09;;;;;;;11.27;2.88;;;30.20;99.90;;;;;;4977106;28;20042;-70
2022/08/05 08:44:36;;;;;;;7.00;3.20;;;31.50;99.90;;;;;;4987806;28;20146;-71
2022/08/05 08:47:05;;;;;;;7.45;2.67;;;32.60;99.90;;;;;;5017146;28;20060;-71
2022/08/05 08:49:35;;;;;;;7.63;2.28;;;32.30;99.90;;;;;;4990956;28;20033;-71
2022/08/05 08:52:18;;;;;;;10.18;2.92;;;32.80;99.90;;;;;;5000887;28;20030;-71
2022/08/05 08:54:46;;;;;;;9.07;2.38;;;33.40;99.90;;;;;;5010740;28;20077;-72
2022/08/05 08:57:12;;;;;;;5.75;2.40;;;33.20;99.90;;;;;;4980495;28;20855;-71
2022/08/05 08:59:40;;;;;;;5.50;2.20;;;32.50;99.90;;;;;;4999686;28;20731;-72
2022/08/05 09:02:06;;;;;;;5.88;2.55;;;33.10;99.90;;;;;;5011534;28;20069;-71
2022/08/05 09:04:39;;;;;;;6.75;2.20;;;33.60;99.90;;;;;;5001734;28;20496;-71
2022/08/05 09:07:07;;;;;;;8.02;2.47;;;33.80;99.90;;;;;;5004732;28;20103;-71
2022/08/05 09:19:54;;;;;;;8.07;2.63;;;32.30;99.90;;;;;;1057880;26;20333;-73
2022/08/05 09:22:20;;;;;;;8.68;3.00;;;32.60;99.90;;;;;;4996610;28;20033;-73
2022/08/05 09:25:00;;;;;;;7.78;2.70;;;33.10;99.90;;;;;;4997272;28;20038;-72
2022/08/05 09:27:34;;;;;;;6.18;3.15;;;33.30;99.90;;;;;;4994337;28;20076;-73
2022/08/05 09:30:01;;;;;;;7.78;2.80;;;32.00;99.90;;;;;;5000077;28;20854;-73
2022/08/05 09:32:38;;;;;;;7.15;2.80;;;32.70;99.90;;;;;;4964662;28;20046;-72
2022/08/05 09:35:16;;;;;;;11.60;3.00;;;33.30;99.90;;;;;;4978479;28;20037;-72
2022/08/05 09:37:50;;;;;;;6.75;2.50;;;34.10;99.90;;;;;;4993955;28;20042;-74
2022/08/05 09:40:48;;;;;;;6.70;2.40;;;34.30;99.90;;;;;;4965272;28;20050;-73
2022/08/05 09:43:34;;;;;;;6.43;2.67;;;32.90;99.90;;;;;;4940592;28;20352;-72
2022/08/05 09:46:00;;;;;;;12.60;2.90;;;31.60;99.90;;;;;;4996234;28;20136;-73
2022/08/05 09:48:30;;;;;;;7.82;2.30;;;31.30;99.90;;;;;;4973243;28;20038;-73
2022/08/05 09:50:59;;;;;;;8.23;2.45;;;33.40;99.90;;;;;;4977776;28;20069;-73
2022/08/05 09:53:25;;;;;;;6.32;2.42;;;33.00;99.90;;;;;;4995589;28;20052;-73
2022/08/05 09:56:02;;;;;;;6.22;3.53;;;33.70;99.90;;;;;;4976648;28;20145;-73
2022/08/05 09:58:28;;;;;;;4.43;1.90;;;33.70;99.90;;;;;;4996243;28;20041;-73
2022/08/05 10:01:02;;;;;;;4.18;2.00;;;34.80;99.90;;;;;;4964168;28;20106;-73
2022/08/05 10:03:29;;;;;;;3.05;1.83;;;34.90;99.90;;;;;;4987887;28;20029;-74
2022/08/05 10:06:05;;;;;;;3.20;1.60;;;35.00;99.90;;;;;;5001176;28;20069;-72
2022/08/05 10:08:31;;;;;;;6.47;2.00;;;35.30;99.90;;;;;;4981148;28;20139;-73
2022/08/05 10:10:58;;;;;;;8.10;2.10;;;35.80;99.90;;;;;;4984289;28;20108;-73
2022/08/05 10:13:35;;;;;;;3.92;2.00;;;35.80;99.90;;;;;;4995571;28;20052;-72
2022/08/05 10:16:03;;;;;;;8.80;2.00;;;33.90;99.90;;;;;;4971452;28;20038;-72
2022/08/05 10:18:31;;;;;;;4.88;1.92;;;34.60;99.90;;;;;;5003814;28;20034;-72
2022/08/05 10:21:01;;;;;;;5.07;1.88;;;33.60;99.90;;;;;;4983013;28;20037;-73
2022/08/05 10:23:35;;;;;;;7.57;2.08;;;33.30;99.90;;;;;;4981205;28;20460;-72
2022/08/05 10:26:08;;;;;;;8.70;2.00;;;33.60;99.90;;;;;;4985086;28;20034;-73
2022/08/05 10:28:35;;;;;;;7.35;1.90;;;34.30;99.90;;;;;;4977740;28;20042;-73
2022/08/05 10:31:01;;;;;;;5.65;2.00;;;32.70;99.90;;;;;;5002044;28;20042;-72
2022/08/05 10:33:33;;;;;;;5.00;2.05;;;32.80;99.90;;;;;;4987380;28;20056;-74
2022/08/05 10:36:02;;;;;;;8.00;2.10;;;33.40;99.90;;;;;;4980958;28;20095;-74
2022/08/05 10:38:30;;;;;;;5.20;1.70;;;34.10;99.90;;;;;;4980346;28;20042;-73
2022/08/05 10:41:12;;;;;;;7.07;2.22;;;34.70;99.90;;;;;;4966808;28;20184;-72
2022/08/05 10:44:05;;;;;;;6.32;2.03;;;33.90;99.90;;;;;;4995339;28;20055;-73
2022/08/05 10:46:49;;;;;;;5.13;1.88;;;33.70;99.90;;;;;;4996545;28;20030;-73
2022/08/05 10:49:16;;;;;;;6.25;1.90;;;34.00;99.90;;;;;;4982105;28;20531;-72
2022/08/05 10:51:56;;;;;;;8.55;2.10;;;34.70;99.90;;;;;;4999912;28;20448;-73
2022/08/05 10:54:23;;;;;;;6.43;1.92;;;34.70;99.90;;;;;;4952740;28;20109;-73
2022/08/05 10:56:56;;;;;;;6.65;2.28;;;33.80;99.90;;;;;;4982126;28;20038;-73
2022/08/05 10:59:30;;;;;;;7.30;2.22;;;33.10;99.90;;;;;;4982876;28;20121;-72
2022/08/05 11:02:11;;;;;;;6.47;1.77;;;34.00;99.90;;;;;;4977963;28;20042;-73
2022/08/05 11:04:54;;;;;;;;;;;33.40;99.90;;;;;;4982531;28;20033;-72
2022/08/05 11:07:21;;;;;;;6.75;2.05;;;34.40;99.90;;;;;;4998561;28;19925;-72
2022/08/05 11:09:52;;;;;;;6.78;2.13;;;34.30;99.90;;;;;;4999620;28;20885;-72
2022/08/05 11:12:29;;;;;;;;;;;34.20;99.90;;;;;;4996707;28;20789;-72
2022/08/05 11:15:24;;;;;;;9.18;2.38;;;34.20;99.90;;;;;;5000137;28;19917;-73
2022/08/05 11:17:54;;;;;;;5.10;2.22;;;35.00;99.90;;;;;;5005368;28;20038;-73
2022/08/05 11:20:46;;;;;;;5.65;2.40;;;34.00;99.90;;;;;;5005281;28;20045;-74
2022/08/05 11:23:25;;;;;;;4.65;2.00;;;34.20;99.90;;;;;;5003299;28;20063;-72
2022/08/05 11:26:08;;;;;;;5.65;2.10;;;33.20;99.90;;;;;;4998242;28;20053;-72
2022/08/05 11:28:34;;;;;;;5.22;1.83;;;32.70;99.90;;;;;;4977611;28;20045;-73
2022/08/05 11:31:00;;;;;;;4.03;2.25;;;32.80;99.90;;;;;;4999085;28;20655;-73
2022/08/05 11:33:31;;;;;;;7.30;2.40;;;32.80;99.90;;;;;;4983102;28;20042;-73
2022/08/05 11:35:59;;;;;;;11.90;2.92;;;33.10;99.90;;;;;;5005239;28;20137;-76
2022/08/05 11:38:43;;;;;;;4.30;2.20;;;33.70;99.90;;;;;;4983313;28;20136;-74
2022/08/05 11:41:16;;;;;;;9.82;2.20;;;34.30;99.90;;;;;;4979584;28;20049;-75
2022/08/05 11:43:51;;;;;;;7.80;3.20;;;34.60;99.90;;;;;;5000648;28;20570;-75
2022/08/05 11:46:17;;;;;;;6.45;2.13;;;34.60;99.90;;;;;;4998723;28;20129;-74
2022/08/05 11:48:43;;;;;;;6.32;1.98;;;34.30;99.90;;;;;;4996476;28;20453;-75
2022/08/05 11:51:09;;;;;;;12.82;2.78;;;34.30;99.90;;;;;;4972365;28;20117;-74
2022/08/05 11:53:36;;;;;;;5.55;2.40;;;34.90;99.90;;;;;;4994762;28;20069;-74
2022/08/05 11:56:02;;;;;;;4.10;2.22;;;34.20;99.90;;;;;;4980167;28;20038;-74
2022/08/05 11:58:36;;;;;;;5.55;1.90;;;34.90;99.90;;;;;;4996712;28;20045;-74
2022/08/05 12:01:08;;;;;;;5.93;2.00;;;33.80;99.90;;;;;;4976985;28;20116;-74
2022/08/05 12:03:50;;;;;;;7.07;1.83;;;34.20;99.90;;;;;;4997935;28;20149;-75
2022/08/05 12:06:17;;;;;;;7.15;1.90;;;34.50;99.90;;;;;;4995456;28;20100;-75
2022/08/05 12:08:46;;;;;;;7.30;2.03;;;34.30;99.90;;;;;;4998699;28;20137;-75
2022/08/05 12:11:19;;;;;;;6.50;1.98;;;34.40;99.90;;;;;;4999561;28;20049;-74
2022/08/05 12:14:11;;;;;;;3.75;1.77;;;34.70;99.90;;;;;;4982990;28;20053;-74
2022/08/05 12:16:39;;;;;;;4.50;1.90;;;34.70;99.90;;;;;;4994233;28;20485;-74
2022/08/05 12:19:11;;;;;;;3.70;2.20;;;34.70;99.90;;;;;;4983380;28;20040;-77
2022/08/05 12:21:48;;;;;;;5.90;2.15;;;35.00;99.90;;;;;;5001326;28;20060;-75
2022/08/05 12:24:17;;;;;;;5.57;1.80;;;34.20;99.90;;;;;;4978287;28;20117;-73
2022/08/05 12:26:52;;;;;;;2.67;1.80;;;34.60;99.90;;;;;;4995863;28;20030;-75
2022/08/05 12:29:21;;;;;;;4.35;1.88;;;34.30;99.90;;;;;;4981379;28;20061;-74
2022/08/05 12:31:50;;;;;;;4.55;2.38;;;35.30;99.90;;;;;;4982860;28;20042;-73
2022/08/05 12:34:18;;;;;;;5.05;2.10;;;35.50;99.90;;;;;;4979956;28;20335;-74
2022/08/05 12:36:46;;;;;;;5.05;2.05;;;34.90;99.90;;;;;;4999029;28;20069;-75
2022/08/05 12:39:12;;;;;;;6.03;2.20;;;35.10;99.90;;;;;;4997529;28;20030;-75
2022/08/05 12:41:40;;;;;;;8.70;2.25;;;35.00;99.90;;;;;;4980077;28;20121;-73
2022/08/05 12:44:11;;;;;;;3.05;1.95;;;34.60;99.90;;;;;;5000360;28;20030;-74
2022/08/05 12:46:38;;;;;;;;;;;34.00;99.90;;;;;;4981083;28;20030;-73
2022/08/05 12:49:13;;;;;;;7.82;2.00;;;35.40;99.90;;;;;;4998977;28;19921;-73
2022/08/05 12:51:59;;;;;;;3.92;2.00;;;35.20;99.90;;;;;;4979409;28;20038;-73
2022/08/05 12:54:28;;;;;;;5.13;1.83;;;34.70;99.90;;;;;;4984011;28;20045;-74
2022/08/05 12:56:57;;;;;;;2.92;1.77;;;35.30;99.90;;;;;;4999049;28;20069;-73
2022/08/05 12:59:26;;;;;;;4.30;1.92;;;35.30;99.90;;;;;;4996199;28;20570;-72
2022/08/05 13:01:57;;;;;;;3.65;2.10;;;35.40;99.90;;;;;;4983205;28;20756;-73
2022/08/05 13:04:28;;;;;;;5.53;1.70;;;35.20;99.90;;;;;;4998520;28;20972;-74
2022/08/05 13:06:57;;;;;;;4.63;2.28;;;35.40;99.90;;;;;;4981994;28;20484;-74
2022/08/05 13:09:25;;;;;;;5.03;1.65;;;35.00;99.90;;;;;;4999229;28;20069;-73
2022/08/05 13:11:59;;;;;;;3.35;1.85;;;34.40;99.90;;;;;;4997495;28;20834;-73
2022/08/05 13:14:25;;;;;;;2.85;1.58;;;33.00;99.90;;;;;;4980300;28;20467;-73